San Pedro, California
Current Conditions -  °F | °C
As of 5:53 AM on Saturday 25 Oct 2014 (Local Time) from KLGB Reporting Station
Overcast Overcast  
Wind Chill: 65°   Ceiling: 10000
Heat Index: 65°   Visibility: 8mi
Dew Point: 62°   Wind: 5mph
Humidity: 90%   Direction: 330°NNW
Pressure: 29.99"   Gusts: NA
Location:  33.74°N, 118.29°W
Report Text: KLGB 251253Z 33004KT 8SM OVC100 18/17 A2999 RMK AO2 SLP153 T01830167
Loading
Personal Weather Stations






























Interactive Weather Map
Tropical Storm Tracking
New forecast layout! Learn more

10-Day Weather Forecast

Advertisements
Track Severe Weather on mobile